Time;durP1;ratioP1;P1;durP2;ratioP2;P2;SDS_P1;SDS_P2;PMS_P1;PMS_P2;Temp;Humidity;BMP_temperature;BMP_pressure;BME280_temperature;BME280_humidity;BME280_pressure;Samples;Min_cycle;Max_cycle;Signal;HPM_P1;HPM_P2
2022/01/08 00:01:55;;;;;;;4.43;3.23;;;1.60;99.90;;;;;;4982844;28;20375;-78
2022/01/08 00:04:21;;;;;;;4.60;3.07;;;1.50;99.90;;;;;;4994585;28;20186;-78
2022/01/08 00:06:46;;;;;;;3.93;3.30;;;1.40;99.90;;;;;;4981194;28;20561;-78
2022/01/08 00:09:12;;;;;;;4.20;3.30;;;1.30;99.90;;;;;;4980049;28;20189;-78
2022/01/08 00:11:41;;;;;;;3.47;3.03;;;1.30;99.90;;;;;;4983540;28;20228;-78
2022/01/08 00:14:09;;;;;;;4.27;3.37;;;1.20;99.90;;;;;;4984810;28;20192;-80
2022/01/08 00:16:35;;;;;;;4.67;3.83;;;1.20;99.90;;;;;;4987208;28;20529;-77
2022/01/08 00:19:00;;;;;;;5.43;4.03;;;1.10;99.90;;;;;;4982179;28;20187;-76
2022/01/08 00:21:26;;;;;;;5.10;3.80;;;1.00;99.90;;;;;;4982788;28;20212;-77
2022/01/08 00:23:52;;;;;;;5.20;4.27;;;1.00;99.90;;;;;;4982657;28;20609;-79
2022/01/08 00:26:17;;;;;;;5.20;3.97;;;1.10;99.90;;;;;;4983280;28;20179;-78
2022/01/08 00:28:43;;;;;;;5.67;4.50;;;1.10;99.90;;;;;;4986344;28;20181;-77
2022/01/08 00:31:10;;;;;;;6.23;4.00;;;1.20;99.90;;;;;;4999737;28;20233;-77
2022/01/08 00:33:37;;;;;;;5.50;4.27;;;1.40;99.90;;;;;;4983427;28;20195;-79
2022/01/08 00:36:04;;;;;;;5.83;4.30;;;1.30;99.90;;;;;;4983691;28;20212;-77
2022/01/08 00:38:30;;;;;;;6.33;4.30;;;1.40;99.90;;;;;;4998817;28;20185;-77
2022/01/08 00:40:55;;;;;;;5.67;4.27;;;1.50;99.90;;;;;;4996946;28;20216;-77
2022/01/08 00:43:21;;;;;;;5.90;4.30;;;1.50;99.90;;;;;;4982960;28;20199;-78
2022/01/08 00:45:47;;;;;;;5.17;3.90;;;1.50;99.90;;;;;;4999089;28;20240;-77
2022/01/08 00:48:13;;;;;;;5.07;3.73;;;1.60;99.90;;;;;;4983237;28;20196;-77
2022/01/08 00:50:38;;;;;;;4.17;3.53;;;1.60;99.90;;;;;;4983732;28;20278;-77
2022/01/08 00:53:04;;;;;;;4.57;3.93;;;1.70;99.90;;;;;;4984303;28;20271;-78
2022/01/08 00:55:30;;;;;;;4.70;3.57;;;1.60;99.90;;;;;;4984069;28;20188;-77
2022/01/08 00:57:56;;;;;;;3.87;3.17;;;1.50;99.90;;;;;;4981970;28;20283;-78
2022/01/08 01:00:21;;;;;;;4.10;3.13;;;1.50;99.90;;;;;;4990879;28;20217;-77
2022/01/08 01:02:47;;;;;;;4.40;3.20;;;1.50;99.90;;;;;;4979824;28;20212;-77
2022/01/08 01:05:13;;;;;;;3.20;2.90;;;1.40;99.90;;;;;;4983364;28;20184;-76
2022/01/08 01:07:39;;;;;;;3.47;3.10;;;1.20;99.90;;;;;;4982140;28;20565;-78
2022/01/08 01:10:07;;;;;;;2.73;2.40;;;1.20;99.90;;;;;;4996552;28;20215;-79
2022/01/08 01:12:32;;;;;;;3.23;2.73;;;1.20;99.90;;;;;;4982686;28;20199;-78
2022/01/08 01:14:58;;;;;;;3.20;2.50;;;1.20;99.90;;;;;;4983448;28;20177;-77
2022/01/08 01:17:23;;;;;;;3.07;2.50;;;1.00;99.90;;;;;;4996476;28;20183;-77
2022/01/08 01:19:49;;;;;;;3.43;2.60;;;1.00;99.90;;;;;;4998471;28;21270;-78
2022/01/08 01:22:18;;;;;;;3.20;2.30;;;1.00;99.90;;;;;;4982279;28;20223;-78
2022/01/08 01:24:44;;;;;;;3.70;2.70;;;1.00;99.90;;;;;;4980605;28;20599;-76
2022/01/08 01:30:30;;;;;;;3.10;2.50;;;0.80;99.90;;;;;;4962065;28;20196;-78
2022/01/08 01:48:54;;;;;;;3.63;2.90;;;0.70;99.90;;;;;;4986202;28;20180;-77
2022/01/08 01:51:21;;;;;;;4.37;3.07;;;0.60;99.90;;;;;;5001008;28;20200;-76
2022/01/08 01:53:47;;;;;;;3.57;2.77;;;0.70;99.90;;;;;;4985257;28;20189;-79
2022/01/08 01:56:15;;;;;;;3.57;2.50;;;0.60;99.90;;;;;;4985476;28;20269;-78
2022/01/08 01:58:41;;;;;;;3.53;2.70;;;0.70;99.90;;;;;;4984836;28;20205;-77
2022/01/08 02:01:07;;;;;;;3.40;2.87;;;0.80;99.90;;;;;;4984955;28;20238;-77
2022/01/08 02:03:33;;;;;;;3.90;3.17;;;0.90;99.90;;;;;;4985244;28;20196;-75
2022/01/08 02:05:59;;;;;;;3.80;2.80;;;0.90;99.90;;;;;;5001852;28;20184;-78
2022/01/08 02:08:24;;;;;;;4.27;3.00;;;1.00;99.90;;;;;;4986909;28;20208;-77
2022/01/08 02:10:50;;;;;;;4.07;2.63;;;1.10;99.90;;;;;;4983328;28;20215;-78
2022/01/08 02:13:26;;;;;;;4.13;2.80;;;1.10;99.90;;;;;;5001763;28;20846;-77
2022/01/08 02:15:54;;;;;;;3.83;2.73;;;1.00;99.90;;;;;;4984141;28;20256;-78
2022/01/08 02:18:27;;;;;;;4.27;2.80;;;1.10;99.90;;;;;;4987037;28;20530;-78
2022/01/08 02:20:54;;;;;;;3.87;2.70;;;1.10;99.90;;;;;;4985181;28;20208;-78
2022/01/08 02:23:20;;;;;;;3.77;2.50;;;1.00;99.90;;;;;;5001478;28;20180;-78
2022/01/08 02:25:45;;;;;;;2.60;2.33;;;0.90;99.90;;;;;;4987719;28;21321;-78
2022/01/08 02:28:11;;;;;;;3.63;3.10;;;0.80;99.90;;;;;;4983913;28;20319;-78
2022/01/08 02:30:37;;;;;;;3.60;2.73;;;0.70;99.90;;;;;;4983298;28;20286;-77
2022/01/08 02:33:03;;;;;;;2.77;2.47;;;0.70;99.90;;;;;;5003030;28;20216;-79
2022/01/08 02:35:29;;;;;;;2.77;2.17;;;0.70;99.90;;;;;;4992717;28;20199;-78
2022/01/08 02:37:54;;;;;;;3.20;2.60;;;0.70;99.90;;;;;;4984916;28;20185;-78
2022/01/08 02:40:22;;;;;;;3.90;2.47;;;0.60;99.90;;;;;;4985236;28;20661;-79
2022/01/08 02:43:02;;;;;;;3.73;2.43;;;0.60;99.90;;;;;;4985375;28;20177;-78
2022/01/08 02:45:29;;;;;;;3.00;2.43;;;0.60;99.90;;;;;;4983246;28;20275;-77
2022/01/08 02:47:55;;;;;;;3.47;2.40;;;0.60;99.90;;;;;;5000000;28;20271;-79
2022/01/08 02:50:22;;;;;;;3.03;2.47;;;0.60;99.90;;;;;;4986625;28;20290;-77
2022/01/08 02:52:48;;;;;;;3.70;2.60;;;0.60;99.90;;;;;;4999157;28;20215;-77
2022/01/08 02:55:16;;;;;;;2.77;2.30;;;0.50;99.90;;;;;;4986211;28;20193;-77
2022/01/08 02:57:42;;;;;;;3.57;2.67;;;0.40;99.90;;;;;;4999555;28;20181;-77
2022/01/08 03:00:10;;;;;;;4.77;3.10;;;0.30;99.90;;;;;;4984046;28;20269;-77
2022/01/08 03:02:47;;;;;;;3.67;2.77;;;0.30;99.90;;;;;;4984982;28;20280;-78
2022/01/08 03:05:13;;;;;;;4.53;3.10;;;0.30;99.90;;;;;;5000096;28;20188;-78
2022/01/08 03:07:40;;;;;;;4.13;3.07;;;0.30;99.90;;;;;;5000677;28;20229;-77
2022/01/08 03:10:08;;;;;;;5.53;3.80;;;0.30;99.90;;;;;;4983374;28;20333;-78
2022/01/08 03:12:33;;;;;;;4.73;3.30;;;0.30;99.90;;;;;;4984654;28;21207;-77
2022/01/08 03:14:59;;;;;;;4.17;3.50;;;0.20;99.90;;;;;;4998809;28;20221;-77
2022/01/08 03:17:25;;;;;;;5.27;3.37;;;0.20;99.90;;;;;;5000803;28;20191;-78
2022/01/08 03:19:52;;;;;;;5.43;3.63;;;0.20;99.90;;;;;;4984492;28;20246;-77
2022/01/08 03:22:18;;;;;;;4.57;3.47;;;0.30;99.90;;;;;;4998009;28;20292;-77
2022/01/08 03:24:44;;;;;;;5.30;3.90;;;0.30;99.90;;;;;;4983631;28;20263;-77
2022/01/08 03:27:10;;;;;;;4.80;3.60;;;0.30;99.90;;;;;;4984482;28;20184;-78
2022/01/08 03:29:36;;;;;;;6.10;3.67;;;0.30;99.90;;;;;;4984045;28;20189;-77
2022/01/08 03:32:02;;;;;;;4.73;3.40;;;0.20;99.90;;;;;;4999644;28;20253;-78
2022/01/08 03:34:27;;;;;;;5.13;3.57;;;0.20;99.90;;;;;;4999792;28;20192;-77
2022/01/08 03:36:53;;;;;;;5.23;3.80;;;0.10;99.90;;;;;;4982828;28;20203;-77
2022/01/08 03:39:20;;;;;;;5.83;3.73;;;0.00;99.90;;;;;;4990337;28;20185;-77
2022/01/08 03:41:46;;;;;;;5.03;4.07;;;0.00;99.90;;;;;;4982681;28;20303;-77
2022/01/08 03:44:12;;;;;;;5.47;3.80;;;0.00;99.90;;;;;;4981949;28;20181;-77
2022/01/08 03:46:38;;;;;;;5.10;3.53;;;0.10;99.90;;;;;;4983614;28;20191;-77
2022/01/08 03:51:31;;;;;;;6.50;4.43;;;0.10;99.90;;;;;;4984048;28;20216;-77
2022/01/08 03:53:57;;;;;;;5.07;3.63;;;0.30;99.90;;;;;;4989033;28;20192;-77
2022/01/08 03:56:24;;;;;;;6.27;4.43;;;0.30;99.90;;;;;;4982444;28;20188;-77
2022/01/08 03:58:49;;;;;;;6.27;4.40;;;0.30;99.90;;;;;;4983206;28;20193;-79
2022/01/08 04:01:15;;;;;;;5.63;4.20;;;0.40;99.90;;;;;;4996182;28;20227;-77
2022/01/08 04:03:41;;;;;;;4.93;4.13;;;0.40;99.90;;;;;;4982349;28;20189;-77
2022/01/08 04:06:07;;;;;;;6.87;5.23;;;0.50;99.90;;;;;;4983144;28;20189;-78
2022/01/08 04:08:32;;;;;;;6.00;4.33;;;0.50;99.90;;;;;;4982314;28;20207;-77
2022/01/08 04:10:58;;;;;;;7.87;4.77;;;0.70;99.90;;;;;;4981722;28;20215;-78
2022/01/08 04:13:28;;;;;;;6.27;4.57;;;0.70;99.90;;;;;;4981326;28;20220;-77
2022/01/08 04:15:58;;;;;;;6.17;4.70;;;0.80;99.90;;;;;;4996674;28;20188;-77
2022/01/08 04:18:24;;;;;;;7.57;5.63;;;0.90;99.90;;;;;;4980692;28;20184;-77
2022/01/08 04:23:22;;;;;;;7.23;5.10;;;1.10;99.90;;;;;;4981856;28;20275;-79
2022/01/08 04:25:49;;;;;;;6.90;4.80;;;1.10;99.90;;;;;;4982678;28;20184;-77
2022/01/08 04:28:16;;;;;;;6.07;4.53;;;1.10;99.90;;;;;;4982924;28;20263;-78
2022/01/08 04:30:42;;;;;;;6.77;4.83;;;1.20;99.90;;;;;;4996672;28;20702;-77
2022/01/08 04:33:07;;;;;;;7.60;5.20;;;1.20;99.90;;;;;;4978095;28;20263;-77
2022/01/08 04:35:33;;;;;;;7.40;4.97;;;1.20;99.90;;;;;;4980610;28;20208;-77
2022/01/08 04:37:58;;;;;;;8.20;5.20;;;1.20;99.90;;;;;;4980392;28;20335;-78
2022/01/08 04:40:24;;;;;;;7.70;5.50;;;1.20;99.90;;;;;;4995601;28;20200;-77
2022/01/08 04:42:50;;;;;;;8.87;5.60;;;1.30;99.90;;;;;;4995241;28;20184;-77
2022/01/08 04:45:15;;;;;;;7.93;5.70;;;1.30;99.90;;;;;;4979550;28;20184;-77
2022/01/08 04:47:41;;;;;;;7.73;5.40;;;1.30;99.90;;;;;;4977938;28;21015;-77
2022/01/08 04:50:08;;;;;;;8.50;5.07;;;1.40;99.90;;;;;;4979137;28;21211;-78
2022/01/08 04:52:34;;;;;;;7.47;5.50;;;1.40;99.90;;;;;;4978026;28;20550;-78
2022/01/08 04:54:59;;;;;;;8.03;4.90;;;1.40;99.90;;;;;;4977276;28;20192;-77
2022/01/08 04:57:25;;;;;;;7.07;5.10;;;1.40;99.90;;;;;;4994030;28;20188;-77
2022/01/08 04:59:51;;;;;;;6.93;5.43;;;1.30;99.90;;;;;;4988506;28;20184;-77
2022/01/08 05:02:16;;;;;;;6.43;5.03;;;1.40;99.90;;;;;;4981632;28;20223;-77
2022/01/08 05:04:42;;;;;;;6.93;5.47;;;1.40;99.90;;;;;;4982425;28;20212;-78
2022/01/08 05:07:08;;;;;;;7.77;5.13;;;1.40;99.90;;;;;;4980628;28;20259;-77
2022/01/08 05:09:33;;;;;;;6.77;5.37;;;1.40;99.90;;;;;;4981170;28;20211;-78
2022/01/08 05:11:59;;;;;;;7.17;5.50;;;1.40;99.90;;;;;;4988189;28;20299;-77
2022/01/08 05:14:27;;;;;;;7.77;5.40;;;1.40;99.90;;;;;;4982054;28;20192;-77
2022/01/08 05:16:59;;;;;;;7.47;5.10;;;1.50;99.90;;;;;;4981632;28;20196;-78
2022/01/08 05:19:39;;;;;;;7.23;5.30;;;1.50;99.90;;;;;;4980388;28;20180;-78
2022/01/08 05:22:06;;;;;;;7.93;5.33;;;1.50;99.90;;;;;;4981429;28;20267;-77
2022/01/08 05:24:33;;;;;;;8.33;5.67;;;1.50;99.90;;;;;;4997862;28;20180;-78
2022/01/08 05:26:59;;;;;;;6.90;5.33;;;1.40;99.90;;;;;;4982281;28;20180;-77
2022/01/08 05:29:25;;;;;;;6.97;5.10;;;1.40;99.90;;;;;;4978830;28;20189;-78
2022/01/08 05:31:52;;;;;;;7.13;5.33;;;1.40;99.90;;;;;;4996306;28;20247;-78
2022/01/08 05:34:17;;;;;;;6.73;5.50;;;1.40;99.90;;;;;;4980385;28;20206;-77
2022/01/08 05:36:43;;;;;;;8.03;5.43;;;1.40;99.90;;;;;;4987299;28;20897;-80
2022/01/08 05:39:09;;;;;;;7.27;5.07;;;1.40;99.90;;;;;;4980023;28;20276;-77
2022/01/08 05:41:34;;;;;;;7.80;5.33;;;1.40;99.90;;;;;;4982020;28;20291;-78
2022/01/08 05:44:00;;;;;;;7.80;5.77;;;1.40;99.90;;;;;;4987447;28;20266;-77
2022/01/08 05:46:25;;;;;;;8.77;5.80;;;1.40;99.90;;;;;;4978225;28;20772;-77
2022/01/08 05:48:51;;;;;;;7.93;5.70;;;1.40;99.90;;;;;;4981027;28;20252;-77
2022/01/08 05:51:16;;;;;;;8.23;5.23;;;1.40;99.90;;;;;;4982886;28;20822;-77
2022/01/08 05:53:42;;;;;;;8.20;6.07;;;1.60;99.90;;;;;;4981443;28;20181;-77
2022/01/08 05:56:08;;;;;;;7.67;5.23;;;1.70;99.90;;;;;;4980790;28;20242;-77
2022/01/08 05:58:34;;;;;;;7.93;5.87;;;1.60;99.90;;;;;;4981031;28;20187;-78
2022/01/08 06:00:59;;;;;;;7.13;5.60;;;1.60;99.90;;;;;;4982026;28;20211;-77
2022/01/08 06:03:25;;;;;;;7.37;5.47;;;1.80;99.90;;;;;;4981975;28;20211;-78
2022/01/08 06:05:51;;;;;;;9.57;5.47;;;1.70;99.90;;;;;;4996434;28;20184;-77
2022/01/08 06:08:17;;;;;;;7.53;5.30;;;1.70;99.90;;;;;;4979849;28;20184;-77
2022/01/08 06:10:42;;;;;;;9.90;5.87;;;1.60;99.90;;;;;;4979847;28;20205;-77
2022/01/08 06:13:08;;;;;;;7.70;5.60;;;1.50;99.90;;;;;;4980525;28;20271;-77
2022/01/08 06:15:33;;;;;;;6.30;4.87;;;1.50;99.90;;;;;;4980562;28;20647;-77
2022/01/08 06:17:59;;;;;;;10.13;5.27;;;1.50;99.90;;;;;;4981963;28;20192;-77
2022/01/08 06:20:24;;;;;;;8.37;5.47;;;1.50;99.90;;;;;;4981578;28;20591;-77
2022/01/08 06:22:50;;;;;;;7.77;5.53;;;1.50;99.90;;;;;;4996763;28;20191;-77
2022/01/08 06:25:16;;;;;;;7.80;5.60;;;1.50;99.90;;;;;;4991605;28;20439;-78
2022/01/08 06:27:41;;;;;;;10.27;6.27;;;1.50;99.90;;;;;;4990071;28;20189;-77
2022/01/08 06:30:07;;;;;;;9.80;6.13;;;1.50;99.90;;;;;;4985165;28;20196;-77
2022/01/08 06:32:33;;;;;;;6.53;5.13;;;1.50;99.90;;;;;;4983067;28;20200;-77
2022/01/08 06:34:58;;;;;;;8.47;6.23;;;1.50;99.90;;;;;;4982500;28;20195;-77
2022/01/08 06:37:24;;;;;;;9.90;5.63;;;1.50;99.90;;;;;;4984280;28;20191;-78
2022/01/08 06:39:50;;;;;;;8.20;5.40;;;1.50;99.90;;;;;;4983301;28;20188;-77
2022/01/08 06:42:16;;;;;;;8.40;5.93;;;1.60;99.90;;;;;;4998807;28;20213;-77
2022/01/08 06:44:42;;;;;;;8.70;5.87;;;1.60;99.90;;;;;;4983950;28;20689;-77
2022/01/08 06:47:07;;;;;;;8.40;5.80;;;1.60;99.90;;;;;;4985968;28;20196;-78
2022/01/08 06:49:33;;;;;;;9.50;5.93;;;1.60;99.90;;;;;;4981223;28;20840;-77
2022/01/08 06:51:58;;;;;;;7.67;5.80;;;1.50;99.90;;;;;;4999033;28;20292;-77
2022/01/08 06:54:24;;;;;;;9.17;6.27;;;1.60;99.90;;;;;;4984571;28;20180;-79
2022/01/08 06:56:49;;;;;;;10.03;6.43;;;1.50;99.90;;;;;;4983890;28;20558;-77
2022/01/08 06:59:15;;;;;;;7.13;5.73;;;1.50;99.90;;;;;;4989904;28;20189;-78
2022/01/08 07:01:41;;;;;;;8.53;6.00;;;1.60;99.90;;;;;;4983072;28;20216;-77
2022/01/08 07:04:06;;;;;;;9.10;6.20;;;1.70;99.90;;;;;;4997284;28;20224;-77
2022/01/08 07:06:32;;;;;;;7.33;5.40;;;1.70;99.90;;;;;;4984038;28;20999;-79
2022/01/08 07:08:58;;;;;;;9.27;6.60;;;1.80;99.90;;;;;;4983069;28;20188;-77
2022/01/08 07:11:23;;;;;;;9.00;6.13;;;1.60;99.90;;;;;;4978993;28;20579;-77
2022/01/08 07:13:49;;;;;;;10.00;6.63;;;1.60;99.90;;;;;;4998292;28;20618;-78
2022/01/08 07:16:15;;;;;;;9.33;6.77;;;1.50;99.90;;;;;;4985986;28;20192;-79
2022/01/08 07:18:40;;;;;;;9.47;6.20;;;1.50;99.90;;;;;;4983793;28;20323;-77
2022/01/08 07:21:06;;;;;;;11.00;6.67;;;1.50;99.90;;;;;;4981184;28;20216;-77
2022/01/08 07:23:32;;;;;;;12.60;6.60;;;1.50;99.90;;;;;;4981876;28;20650;-77
2022/01/08 07:25:57;;;;;;;11.33;6.97;;;1.60;99.90;;;;;;4982843;28;20260;-77
2022/01/08 07:28:23;;;;;;;9.53;7.03;;;1.60;99.90;;;;;;4983974;28;20271;-78
2022/01/08 07:30:49;;;;;;;9.97;6.73;;;1.60;99.90;;;;;;4980889;28;20252;-77
2022/01/08 07:33:14;;;;;;;13.60;6.83;;;1.60;99.90;;;;;;4981128;28;20255;-78
2022/01/08 07:35:40;;;;;;;13.27;6.70;;;1.50;99.90;;;;;;4984434;28;20268;-77
2022/01/08 07:38:06;;;;;;;10.37;6.90;;;1.50;99.90;;;;;;4983706;28;20196;-78
2022/01/08 07:40:31;;;;;;;10.17;6.83;;;1.50;99.90;;;;;;4983219;28;20687;-79
2022/01/08 07:42:57;;;;;;;9.63;6.87;;;1.50;99.90;;;;;;4985120;28;20188;-76
2022/01/08 07:45:22;;;;;;;9.83;6.50;;;1.70;99.90;;;;;;4984604;28;20185;-77
2022/01/08 07:47:48;;;;;;;11.33;7.17;;;1.70;99.90;;;;;;4985600;28;20210;-79
2022/01/08 07:50:15;;;;;;;9.57;7.60;;;1.70;99.90;;;;;;4998780;28;20181;-79
2022/01/08 07:52:42;;;;;;;10.40;7.27;;;1.70;99.90;;;;;;4985293;28;20192;-77
2022/01/08 07:55:09;;;;;;;11.80;7.57;;;1.60;99.90;;;;;;4981879;28;20183;-79
2022/01/08 07:57:34;;;;;;;10.50;6.90;;;1.60;99.90;;;;;;4983493;28;20276;-78
2022/01/08 08:00:00;;;;;;;10.60;7.50;;;1.80;99.90;;;;;;4974988;28;20335;-78
2022/01/08 08:02:26;;;;;;;10.43;7.50;;;1.70;99.90;;;;;;4982477;28;20251;-77
2022/01/08 08:04:51;;;;;;;12.07;6.93;;;1.70;99.90;;;;;;4999278;28;20190;-78
2022/01/08 08:07:31;;;;;;;10.70;7.27;;;1.70;99.90;;;;;;4982863;28;20199;-79
2022/01/08 08:09:57;;;;;;;11.07;7.00;;;1.70;99.90;;;;;;4983149;28;20186;-77
2022/01/08 08:12:23;;;;;;;9.70;6.93;;;1.70;99.90;;;;;;4982354;28;20204;-77
2022/01/08 08:14:48;;;;;;;10.93;7.67;;;1.70;99.90;;;;;;4982176;28;20196;-77
2022/01/08 08:17:14;;;;;;;11.67;7.43;;;1.90;99.90;;;;;;4983837;28;20196;-77
2022/01/08 08:19:40;;;;;;;12.80;7.87;;;1.90;99.90;;;;;;4981094;28;20185;-77
2022/01/08 08:22:05;;;;;;;11.40;7.60;;;1.90;99.90;;;;;;4998016;28;20217;-77
2022/01/08 08:24:31;;;;;;;13.23;7.97;;;1.90;99.90;;;;;;4982993;28;20192;-78
2022/01/08 08:26:56;;;;;;;13.53;7.30;;;1.90;99.90;;;;;;4983265;28;20219;-78
2022/01/08 08:29:22;;;;;;;10.50;6.63;;;1.90;99.90;;;;;;4984038;28;20627;-77
2022/01/08 08:31:47;;;;;;;11.37;7.37;;;1.90;99.90;;;;;;4996831;28;20220;-77
2022/01/08 08:34:13;;;;;;;10.97;6.93;;;1.90;99.90;;;;;;4982851;28;20192;-76
2022/01/08 08:36:38;;;;;;;11.83;7.67;;;2.00;99.90;;;;;;4972306;28;20176;-78
2022/01/08 08:39:04;;;;;;;10.57;6.63;;;2.10;99.90;;;;;;4981141;28;20217;-77
2022/01/08 08:41:30;;;;;;;10.23;7.23;;;2.20;99.90;;;;;;4982937;28;20261;-77
2022/01/08 08:43:56;;;;;;;11.87;7.53;;;2.30;99.90;;;;;;4984170;28;20176;-79
2022/01/08 08:46:21;;;;;;;10.03;6.77;;;2.20;99.90;;;;;;4978880;28;20177;-78
2022/01/08 08:48:47;;;;;;;11.30;6.80;;;2.20;99.90;;;;;;4993313;28;20181;-78
2022/01/08 08:51:12;;;;;;;9.53;6.73;;;2.20;99.90;;;;;;4993994;28;20709;-77
2022/01/08 08:53:38;;;;;;;11.17;7.40;;;2.20;99.90;;;;;;4992474;28;20211;-77
2022/01/08 08:56:04;;;;;;;11.77;6.77;;;2.30;99.90;;;;;;4977897;28;20525;-77
2022/01/08 08:58:30;;;;;;;11.60;7.27;;;2.30;99.90;;;;;;4977626;28;20221;-78
2022/01/08 09:00:56;;;;;;;16.00;8.37;;;2.30;99.90;;;;;;4976503;28;20326;-77
2022/01/08 09:03:21;;;;;;;9.20;6.73;;;2.40;99.90;;;;;;4977878;28;20188;-78
2022/01/08 09:05:47;;;;;;;11.73;7.03;;;2.50;99.90;;;;;;4978504;28;20218;-78
2022/01/08 09:08:13;;;;;;;9.83;6.33;;;2.40;99.90;;;;;;4994717;28;20220;-78
2022/01/08 09:10:39;;;;;;;12.03;7.13;;;2.40;99.90;;;;;;4992548;28;20213;-78
2022/01/08 09:13:04;;;;;;;11.77;6.77;;;2.40;99.90;;;;;;4979362;28;20196;-77
2022/01/08 09:15:30;;;;;;;9.43;6.37;;;2.50;99.90;;;;;;4978738;28;20305;-79
2022/01/08 09:17:57;;;;;;;8.30;5.70;;;2.60;99.90;;;;;;4989267;28;20621;-79
2022/01/08 09:20:25;;;;;;;10.20;6.30;;;2.50;99.90;;;;;;4977441;28;20303;-77
2022/01/08 09:22:51;;;;;;;11.60;6.20;;;2.50;99.90;;;;;;4979912;28;20184;-78
2022/01/08 09:25:16;;;;;;;11.47;6.23;;;2.50;99.90;;;;;;4972358;28;20630;-77
2022/01/08 09:27:42;;;;;;;10.03;5.67;;;2.50;99.90;;;;;;4971529;28;20200;-79
2022/01/08 09:30:08;;;;;;;10.67;6.77;;;2.40;99.90;;;;;;4975797;28;20185;-78
2022/01/08 09:32:34;;;;;;;12.53;6.53;;;2.50;99.90;;;;;;4964546;28;20212;-76
2022/01/08 09:35:00;;;;;;;9.03;6.33;;;2.50;99.90;;;;;;4970921;28;20188;-78
2022/01/08 09:37:25;;;;;;;8.07;5.70;;;2.50;99.90;;;;;;4970334;28;20188;-78
2022/01/08 09:39:51;;;;;;;10.00;6.43;;;2.50;99.90;;;;;;4972309;28;20197;-77
2022/01/08 09:42:17;;;;;;;9.10;6.57;;;2.50;99.90;;;;;;4971292;28;20255;-77
2022/01/08 09:44:44;;;;;;;10.30;6.87;;;2.50;99.90;;;;;;4972169;28;20192;-77
2022/01/08 09:47:11;;;;;;;10.80;6.60;;;2.60;99.90;;;;;;4971373;28;20232;-77
2022/01/08 09:49:38;;;;;;;10.93;6.70;;;2.50;99.90;;;;;;4970339;28;20185;-78
2022/01/08 09:52:05;;;;;;;13.23;6.83;;;2.60;99.90;;;;;;4967623;28;20208;-78
2022/01/08 09:54:31;;;;;;;11.77;6.93;;;2.60;99.90;;;;;;4974539;28;20284;-78
2022/01/08 09:56:57;;;;;;;10.13;6.73;;;2.70;99.90;;;;;;4974886;28;20219;-76
2022/01/08 09:59:23;;;;;;;8.60;6.30;;;2.70;99.90;;;;;;4976683;28;20201;-77
2022/01/08 10:01:54;;;;;;;10.03;7.43;;;2.80;99.90;;;;;;4974041;28;20307;-78
2022/01/08 10:04:37;;;;;;;12.27;6.90;;;2.80;99.90;;;;;;4973324;28;20553;-78
2022/01/08 10:07:17;;;;;;;9.87;6.30;;;2.80;99.90;;;;;;4980189;28;20188;-78
2022/01/08 10:10:10;;;;;;;11.10;6.37;;;2.80;99.90;;;;;;4989454;28;20263;-79
2022/01/08 10:12:45;;;;;;;11.00;6.20;;;3.00;99.90;;;;;;4985541;28;20209;-76
2022/01/08 10:17:58;;;;;;;12.30;6.87;;;3.30;99.90;;;;;;4981382;28;20684;-78
2022/01/08 10:20:51;;;;;;;8.67;6.10;;;3.20;99.90;;;;;;4980003;28;20204;-78
2022/01/08 10:23:20;;;;;;;13.47;7.33;;;3.40;99.90;;;;;;4973381;28;20569;-79
2022/01/08 10:26:04;;;;;;;10.37;6.07;;;3.50;99.90;;;;;;4979263;28;20184;-76
2022/01/08 10:28:43;;;;;;;10.07;6.20;;;3.60;99.90;;;;;;4976043;28;20191;-78
2022/01/08 10:31:16;;;;;;;9.50;6.13;;;3.70;99.90;;;;;;4976991;28;20406;-81
2022/01/08 10:33:45;;;;;;;13.77;6.43;;;3.70;99.90;;;;;;4984192;28;20211;-79
2022/01/08 10:36:11;;;;;;;9.80;6.23;;;3.90;99.90;;;;;;4978661;28;20195;-77
2022/01/08 10:38:37;;;;;;;8.87;6.60;;;4.00;99.90;;;;;;4979043;28;20207;-79
2022/01/08 10:41:03;;;;;;;10.57;7.33;;;4.10;99.90;;;;;;4977330;28;20215;-79
2022/01/08 10:43:33;;;;;;;11.53;6.60;;;4.00;99.90;;;;;;4979826;28;20184;-78
2022/01/08 10:46:28;;;;;;;12.70;6.93;;;3.90;99.90;;;;;;4996537;28;20424;-77
2022/01/08 10:48:53;;;;;;;11.90;6.33;;;3.80;99.90;;;;;;4978816;28;20224;-77
2022/01/08 10:51:19;;;;;;;10.93;6.27;;;3.80;99.90;;;;;;4981157;28;20235;-77
2022/01/08 10:54:09;;;;;;;11.47;6.77;;;3.70;99.90;;;;;;4977543;28;20191;-77
2022/01/08 10:56:42;;;;;;;9.23;5.93;;;3.70;99.90;;;;;;4979440;28;20177;-77
2022/01/08 10:59:18;;;;;;;10.60;6.60;;;3.70;99.90;;;;;;4976376;28;20200;-78
2022/01/08 11:01:49;;;;;;;11.30;6.00;;;3.60;99.90;;;;;;4993839;28;20218;-76
2022/01/08 11:04:35;;;;;;;12.03;7.13;;;3.70;99.90;;;;;;4982617;28;20180;-78
2022/01/08 11:07:07;;;;;;;12.27;5.70;;;3.60;99.90;;;;;;4994626;28;20715;-79
2022/01/08 11:09:36;;;;;;;9.57;5.37;;;3.60;99.90;;;;;;4978948;28;20172;-77
2022/01/08 11:12:04;;;;;;;11.30;5.93;;;3.50;99.90;;;;;;4981443;28;20317;-78
2022/01/08 11:17:29;;;;;;;11.40;6.47;;;3.60;99.90;;;;;;4982493;28;20240;-78
2022/01/08 11:20:09;;;;;;;10.60;6.17;;;3.70;99.90;;;;;;4996365;28;20203;-80
2022/01/08 11:22:37;;;;;;;13.47;6.10;;;3.70;99.90;;;;;;4983371;28;20426;-78
2022/01/08 11:25:13;;;;;;;9.47;5.70;;;3.80;99.90;;;;;;4975501;28;20360;-77
2022/01/08 11:28:04;;;;;;;15.60;5.83;;;3.80;99.90;;;;;;4993499;28;20180;-79
2022/01/08 11:30:38;;;;;;;9.10;5.80;;;3.80;99.90;;;;;;4987796;28;20200;-76
2022/01/08 11:33:12;;;;;;;9.17;5.60;;;3.90;99.90;;;;;;4974054;28;20191;-77
2022/01/08 11:35:39;;;;;;;10.33;6.23;;;4.10;99.90;;;;;;4974291;28;20656;-79
2022/01/08 11:38:07;;;;;;;8.50;5.80;;;4.10;99.90;;;;;;4970848;28;20644;-78
2022/01/08 11:40:33;;;;;;;12.90;6.23;;;4.30;99.90;;;;;;4990573;28;20260;-79
2022/01/08 11:43:04;;;;;;;8.93;5.93;;;4.20;99.90;;;;;;4968305;28;20181;-77
2022/01/08 11:45:33;;;;;;;7.03;4.80;;;4.20;99.90;;;;;;4970243;28;20798;-77
2022/01/08 11:48:03;;;;;;;11.13;5.70;;;4.10;99.90;;;;;;4977207;28;20181;-77
2022/01/08 11:50:29;;;;;;;9.43;5.83;;;4.10;99.90;;;;;;4972077;28;20201;-79
2022/01/08 11:53:18;;;;;;;9.50;4.67;;;4.00;99.90;;;;;;4971939;28;20421;-77
2022/01/08 11:55:48;;;;;;;9.43;5.47;;;3.90;99.90;;;;;;4975985;28;20181;-77
2022/01/08 11:58:14;;;;;;;9.40;5.83;;;3.80;99.90;;;;;;4974978;28;20176;-77
2022/01/08 12:00:47;;;;;;;10.50;5.93;;;3.80;99.90;;;;;;4980499;28;20200;-76
2022/01/08 12:03:36;;;;;;;8.80;5.00;;;3.80;99.90;;;;;;4991277;28;20184;-79
2022/01/08 12:06:31;;;;;;;9.70;5.50;;;3.80;99.90;;;;;;4981955;28;20181;-77
2022/01/08 12:09:25;;;;;;;11.77;6.03;;;3.80;99.90;;;;;;4991798;28;20185;-77
2022/01/08 12:12:00;;;;;;;8.87;5.90;;;3.80;99.90;;;;;;4973367;28;20204;-79
2022/01/08 12:14:27;;;;;;;10.80;5.60;;;3.80;99.90;;;;;;4989497;28;20612;-77
2022/01/08 12:16:58;;;;;;;13.40;6.30;;;3.80;99.90;;;;;;4979824;28;20185;-77
2022/01/08 12:19:38;;;;;;;9.47;5.53;;;3.80;99.90;;;;;;4974824;28;20185;-76
2022/01/08 12:22:16;;;;;;;11.00;5.93;;;3.80;99.90;;;;;;4979097;28;20208;-76
2022/01/08 12:24:51;;;;;;;10.17;5.63;;;3.70;99.90;;;;;;4984525;28;20430;-79
2022/01/08 12:27:40;;;;;;;11.27;6.27;;;3.60;99.90;;;;;;4980852;28;20180;-78
2022/01/08 12:30:15;;;;;;;10.73;5.90;;;3.70;99.90;;;;;;4993059;28;20267;-77
2022/01/08 12:32:46;;;;;;;10.93;5.93;;;3.70;99.90;;;;;;4977137;28;20203;-78
2022/01/08 12:35:15;;;;;;;11.47;6.60;;;3.70;99.90;;;;;;4981503;28;20324;-78
2022/01/08 12:37:44;;;;;;;10.23;5.70;;;3.80;99.90;;;;;;4980474;28;20265;-77
2022/01/08 12:40:12;;;;;;;8.70;5.90;;;3.80;99.90;;;;;;4980815;28;20189;-77
2022/01/08 12:42:43;;;;;;;7.90;5.20;;;3.80;99.90;;;;;;4978731;28;20234;-77
2022/01/08 12:45:15;;;;;;;9.57;5.37;;;3.70;99.90;;;;;;4977932;28;20180;-76
2022/01/08 12:48:05;;;;;;;7.17;5.03;;;3.70;99.90;;;;;;4992954;28;20176;-78
2022/01/08 12:50:44;;;;;;;11.83;6.10;;;3.70;99.90;;;;;;4978953;28;20211;-77
2022/01/08 12:53:11;;;;;;;10.20;5.37;;;3.70;99.90;;;;;;4977879;28;20185;-79
2022/01/08 12:55:52;;;;;;;8.57;5.60;;;3.80;99.90;;;;;;4978000;28;20242;-77
2022/01/08 12:58:21;;;;;;;10.33;5.80;;;3.80;99.90;;;;;;4986008;28;20187;-78
2022/01/08 13:01:09;;;;;;;7.77;5.17;;;3.80;99.90;;;;;;4995795;28;20200;-79
2022/01/08 13:03:44;;;;;;;9.43;5.17;;;3.70;99.90;;;;;;4978687;28;20173;-79
2022/01/08 13:06:12;;;;;;;7.43;4.63;;;3.60;99.90;;;;;;4979763;28;20191;-78
2022/01/08 13:08:40;;;;;;;7.80;4.80;;;3.50;99.90;;;;;;4994722;28;20173;-79
2022/01/08 13:11:08;;;;;;;7.63;4.70;;;3.50;99.90;;;;;;4978218;28;20212;-77
2022/01/08 13:13:45;;;;;;;6.17;4.30;;;3.50;99.90;;;;;;4980307;28;20184;-78
2022/01/08 13:16:26;;;;;;;8.00;4.63;;;3.50;99.90;;;;;;4980982;28;20666;-79
2022/01/08 13:19:09;;;;;;;6.60;4.47;;;3.50;99.90;;;;;;4982987;28;20192;-79
2022/01/08 13:21:37;;;;;;;10.83;4.60;;;3.50;99.90;;;;;;4996384;28;20204;-77
2022/01/08 13:24:18;;;;;;;5.20;3.83;;;3.60;99.90;;;;;;4980846;28;20176;-78
2022/01/08 13:26:57;;;;;;;10.07;4.13;;;3.60;99.90;;;;;;4979011;28;20195;-77
2022/01/08 13:29:40;;;;;;;5.40;3.53;;;3.60;99.90;;;;;;4981400;28;20184;-78